Time;durP1;ratioP1;P1;durP2;ratioP2;P2;SDS_P1;SDS_P2;PMS_P1;PMS_P2;Temp;Humidity;BMP_temperature;BMP_pressure;BME280_temperature;BME280_humidity;BME280_pressure;Samples;Min_cycle;Max_cycle;Signal;HPM_P1;HPM_P2
2020/12/30 00:01:01;;;;;;;15.63;9.30;;;;;;;4.66;88.46;98749.47;5044521;28;20025;-76
2020/12/30 00:03:26;;;;;;;15.32;10.00;;;;;;;4.68;88.36;98749.16;5051310;28;20025;-75
2020/12/30 00:05:51;;;;;;;16.17;10.10;;;;;;;4.69;88.58;98753.44;5051149;28;20082;-76
2020/12/30 00:08:17;;;;;;;15.77;9.93;;;;;;;4.70;88.36;98757.78;5047517;28;20390;-76
2020/12/30 00:10:42;;;;;;;14.35;9.68;;;;;;;4.70;88.40;98760.47;5049080;28;20375;-75
2020/12/30 00:13:09;;;;;;;16.98;10.90;;;;;;;4.69;88.73;98748.06;5050966;28;20032;-76
2020/12/30 00:15:34;;;;;;;14.27;10.48;;;;;;;4.68;88.63;98752.66;5052237;28;20029;-76
2020/12/30 00:18:00;;;;;;;16.58;10.25;;;;;;;4.70;88.58;98754.28;5049184;28;20033;-76
2020/12/30 00:20:25;;;;;;;15.18;11.05;;;;;;;4.70;88.66;98754.28;5052028;28;20021;-76
2020/12/30 00:22:51;;;;;;;15.77;10.18;;;;;;;4.70;88.53;98757.78;5047855;28;20475;-76
2020/12/30 00:25:16;;;;;;;16.65;11.35;;;;;;;4.73;88.60;98764.50;5051554;28;20036;-75
2020/12/30 00:27:43;;;;;;;20.95;12.13;;;;;;;4.71;88.62;98761.28;5050009;28;20103;-76
2020/12/30 00:30:13;;;;;;;17.17;10.98;;;;;;;4.71;88.73;98764.78;5043441;28;20057;-76
2020/12/30 00:32:39;;;;;;;16.90;10.85;;;;;;;4.68;88.68;98768.03;5039404;28;20029;-76
2020/12/30 00:35:05;;;;;;;22.10;12.88;;;;;;;4.66;88.65;98772.91;5051415;28;20041;-76
2020/12/30 00:37:30;;;;;;;17.70;12.32;;;;;;;4.64;88.51;98773.22;5048699;28;20083;-76
2020/12/30 00:39:56;;;;;;;20.13;11.98;;;;;;;4.61;88.50;98783.75;5050947;28;20032;-76
2020/12/30 00:42:21;;;;;;;21.40;12.93;;;;;;;4.59;88.52;98788.66;5046931;28;20041;-76
2020/12/30 00:44:47;;;;;;;16.17;11.15;;;;;;;4.57;88.63;98785.41;5050385;28;20474;-76
2020/12/30 00:47:14;;;;;;;22.95;14.13;;;;;;;4.56;88.41;98781.94;5050363;28;20021;-76
2020/12/30 00:49:39;;;;;;;23.92;13.80;;;;;;;4.56;88.62;98786.53;5032722;28;21813;-75
2020/12/30 00:52:04;;;;;;;23.63;12.98;;;;;;;4.54;88.68;98783.28;5048361;28;20568;-76
2020/12/30 00:54:30;;;;;;;21.73;14.63;;;;;;;4.52;88.54;98786.25;5083243;28;20079;-76
2020/12/30 00:56:57;;;;;;;22.30;14.82;;;;;;;4.52;88.59;98790.88;5052809;28;20082;-76
2020/12/30 00:59:22;;;;;;;23.15;14.60;;;;;;;4.50;88.79;98787.63;5053402;28;20378;-76
2020/12/30 01:01:51;;;;;;;22.77;14.85;;;;;;;4.50;88.42;98793.03;5052419;28;20028;-76
2020/12/30 01:04:18;;;;;;;26.08;15.30;;;;;;;4.48;88.73;98795.22;5036605;28;20021;-76
2020/12/30 01:06:50;;;;;;;23.27;13.18;;;;;;;4.47;88.54;98799.00;5053011;28;20032;-76
2020/12/30 01:09:16;;;;;;;25.75;15.02;;;;;;;4.44;88.48;98794.97;5043785;28;20018;-76
2020/12/30 01:11:41;;;;;;;25.17;15.85;;;;;;;4.43;88.53;98799.56;5053187;28;20059;-76
2020/12/30 01:14:06;;;;;;;27.58;16.95;;;;;;;4.42;88.46;98799.84;5034669;28;20031;-76
2020/12/30 01:16:32;;;;;;;29.20;17.05;;;;;;;4.39;88.83;98803.91;5053224;28;20029;-76
2020/12/30 01:18:57;;;;;;;27.30;16.50;;;;;;;4.38;88.96;98805.00;5046560;28;20540;-76
2020/12/30 01:21:23;;;;;;;28.27;17.08;;;;;;;4.40;88.82;98800.13;5052712;28;20033;-76
2020/12/30 01:23:48;;;;;;;26.55;16.23;;;;;;;4.41;88.63;98807.13;5054897;28;20033;-76
2020/12/30 01:26:13;;;;;;;27.63;16.42;;;;;;;4.41;88.71;98806.31;5053279;28;20021;-76
2020/12/30 01:28:39;;;;;;;29.60;17.23;;;;;;;4.40;88.61;98810.91;5043977;28;20478;-76
2020/12/30 01:31:04;;;;;;;31.15;18.00;;;;;;;4.40;88.87;98810.91;5053534;28;20441;-75
2020/12/30 01:33:30;;;;;;;29.63;17.77;;;;;;;4.40;88.82;98816.31;5044699;28;20382;-76
2020/12/30 01:35:55;;;;;;;32.63;17.88;;;;;;;4.41;88.70;98817.91;5048624;28;20023;-76
2020/12/30 01:38:20;;;;;;;33.35;18.15;;;;;;;4.39;88.44;98814.72;5051539;28;20406;-76
2020/12/30 01:40:46;;;;;;;30.77;18.13;;;;;;;4.38;88.66;98823.88;5050560;28;20037;-76
2020/12/30 01:43:14;;;;;;;31.17;18.83;;;;;;;4.38;88.50;98821.19;5050500;28;20089;-76
2020/12/30 01:45:40;;;;;;;30.27;16.60;;;;;;;4.38;88.52;98829.28;5043878;28;20056;-76
2020/12/30 01:48:16;;;;;;;30.15;18.48;;;;;;;4.38;88.57;98834.66;5052985;28;20021;-76
2020/12/30 01:50:41;;;;;;;27.85;16.98;;;;;;;4.39;88.78;98830.06;5046778;28;20063;-76
2020/12/30 01:53:07;;;;;;;28.27;15.45;;;;;;;4.40;88.43;98834.41;5068889;28;20028;-76
2020/12/30 01:55:33;;;;;;;27.63;17.13;;;;;;;4.39;88.59;98839.00;5041959;28;20056;-76
2020/12/30 01:57:58;;;;;;;28.48;16.67;;;;;;;4.37;88.61;98843.84;5048762;28;20355;-76
2020/12/30 02:00:24;;;;;;;28.73;16.90;;;;;;;4.38;88.87;98847.34;5051296;28;20032;-76
2020/12/30 02:03:00;;;;;;;32.47;18.63;;;;;;;4.36;88.73;98836.03;5051487;28;20036;-76
2020/12/30 02:05:27;;;;;;;26.60;16.13;;;;;;;4.35;88.70;98846.03;5053015;28;20029;-76
2020/12/30 02:07:52;;;;;;;31.35;17.92;;;;;;;4.36;88.69;98853.00;5048454;28;20025;-76
2020/12/30 02:10:17;;;;;;;36.22;18.85;;;;;;;4.36;88.65;98858.41;5043288;28;20035;-76
2020/12/30 02:12:46;;;;;;;28.27;18.23;;;;;;;4.35;88.75;98856.81;5051123;28;20623;-76
2020/12/30 02:15:30;;;;;;;30.38;18.23;;;;;;;4.33;88.70;98858.97;5048519;28;20078;-76
2020/12/30 02:17:56;;;;;;;31.25;17.52;;;;;;;4.34;88.56;98857.91;5048703;28;20025;-76
2020/12/30 02:20:22;;;;;;;30.90;17.48;;;;;;;4.34;88.86;98854.41;5052152;28;20025;-76
2020/12/30 02:22:54;;;;;;;29.52;16.30;;;;;;;4.33;88.90;98869.75;5051361;28;20028;-76
2020/12/30 02:25:20;;;;;;;32.50;17.52;;;;;;;4.34;88.56;98866.00;5052648;28;20135;-76
2020/12/30 02:27:45;;;;;;;29.83;16.58;;;;;;;4.34;88.90;98865.19;5033623;28;20047;-76
2020/12/30 02:30:11;;;;;;;28.95;17.55;;;;;;;4.35;88.67;98873.00;5053158;28;20512;-76
2020/12/30 02:32:36;;;;;;;33.42;16.90;;;;;;;4.36;88.74;98868.41;5034755;28;20043;-76
2020/12/30 02:35:01;;;;;;;38.33;19.10;;;;;;;4.35;88.69;98873.00;5052620;28;20151;-75
2020/12/30 02:37:27;;;;;;;32.40;17.88;;;;;;;4.35;88.70;98872.19;5043383;28;20382;-76
2020/12/30 02:39:52;;;;;;;31.83;17.90;;;;;;;4.34;88.40;98866.00;5043068;28;20029;-76
2020/12/30 02:42:18;;;;;;;30.20;16.88;;;;;;;4.35;88.95;98864.91;5050405;28;20032;-76
2020/12/30 02:44:43;;;;;;;31.92;18.95;;;;;;;4.36;88.78;98868.41;5047061;28;20073;-76
2020/12/30 02:47:08;;;;;;;32.65;18.65;;;;;;;4.36;88.68;98871.91;5045166;28;20017;-76
2020/12/30 02:49:34;;;;;;;32.47;18.77;;;;;;;4.35;88.59;98878.38;5051164;28;20478;-75
2020/12/30 02:51:59;;;;;;;31.23;17.98;;;;;;;4.34;88.69;98874.09;5044416;28;20032;-76
2020/12/30 02:54:24;;;;;;;34.25;19.67;;;;;;;4.33;88.40;98883.25;5051276;28;20390;-76
2020/12/30 02:56:50;;;;;;;32.67;18.23;;;;;;;4.32;88.88;98878.94;5049126;28;20425;-75
2020/12/30 02:59:15;;;;;;;29.58;16.85;;;;;;;4.32;88.96;98878.94;5033236;28;20090;-75
2020/12/30 03:01:44;;;;;;;26.95;16.83;;;;;;;4.33;88.92;98879.75;5048941;28;20025;-75
2020/12/30 03:04:09;;;;;;;29.60;17.70;;;;;;;4.31;89.04;98882.75;5051046;28;20059;-76
2020/12/30 03:06:35;;;;;;;23.20;14.38;;;;;;;4.32;88.85;98884.34;5050191;28;20029;-76
2020/12/30 03:09:00;;;;;;;28.83;15.38;;;;;;;4.32;88.86;98887.03;5034171;28;20040;-76
2020/12/30 03:11:26;;;;;;;26.77;14.80;;;;;;;4.30;88.77;98883.81;5043788;28;20024;-76
2020/12/30 03:13:52;;;;;;;24.88;15.23;;;;;;;4.29;88.99;98884.91;5050972;28;20023;-76
2020/12/30 03:16:17;;;;;;;26.20;16.00;;;;;;;4.28;88.81;98885.97;5049383;28;20033;-76
2020/12/30 03:18:42;;;;;;;27.50;16.20;;;;;;;4.27;88.72;98887.06;5047846;28;20032;-75
2020/12/30 03:21:08;;;;;;;27.67;15.32;;;;;;;4.27;88.71;98887.06;5045467;28;20033;-77
2020/12/30 03:23:33;;;;;;;24.48;15.45;;;;;;;4.26;89.05;98892.75;5052232;28;20040;-76
2020/12/30 03:25:59;;;;;;;27.98;15.25;;;;;;;4.27;89.00;98899.75;5050445;28;20072;-76
2020/12/30 03:28:24;;;;;;;23.55;14.23;;;;;;;4.25;89.21;98894.63;5047291;28;20029;-76
2020/12/30 03:30:50;;;;;;;24.58;14.13;;;;;;;4.25;88.74;98893.81;5039551;28;20029;-75
2020/12/30 03:33:15;;;;;;;26.27;15.15;;;;;;;4.24;88.54;98895.72;5052099;28;20032;-75
2020/12/30 03:35:41;;;;;;;26.65;14.65;;;;;;;4.24;89.08;98893.03;5050387;28;20048;-76
2020/12/30 03:38:07;;;;;;;28.40;15.15;;;;;;;4.23;88.81;98902.22;5079294;28;20445;-76
2020/12/30 03:40:32;;;;;;;24.13;13.93;;;;;;;4.23;88.81;98907.59;5048521;28;20063;-76
2020/12/30 03:42:57;;;;;;;24.10;14.18;;;;;;;4.24;89.05;98906.50;5050404;28;20035;-76
2020/12/30 03:45:23;;;;;;;23.27;13.65;;;;;;;4.25;88.86;98907.31;5047808;28;20036;-76
2020/12/30 03:47:48;;;;;;;22.85;13.43;;;;;;;4.25;89.03;98905.41;5047322;28;20474;-75
2020/12/30 03:50:13;;;;;;;21.35;11.90;;;;;;;4.26;89.13;98912.44;5043021;28;20029;-76
2020/12/30 03:52:39;;;;;;;21.17;12.15;;;;;;;4.24;88.59;98903.81;5051204;28;20033;-76
2020/12/30 03:55:04;;;;;;;20.45;10.75;;;;;;;4.24;89.16;98909.22;5050113;28;20070;-76
2020/12/30 03:57:30;;;;;;;19.05;11.50;;;;;;;4.21;88.74;98907.88;5045719;28;20514;-76
2020/12/30 03:59:55;;;;;;;22.38;11.77;;;;;;;4.21;88.82;98915.16;5050834;28;20471;-76
2020/12/30 04:02:20;;;;;;;18.77;10.77;;;;;;;4.20;88.41;98910.84;5042635;28;20383;-76
2020/12/30 04:04:46;;;;;;;18.35;10.95;;;;;;;4.20;88.84;98913.53;5051261;28;20033;-75
2020/12/30 04:07:11;;;;;;;18.65;11.15;;;;;;;4.19;88.86;98912.72;5045867;28;20021;-76
2020/12/30 04:09:37;;;;;;;16.70;9.57;;;;;;;4.22;89.17;98914.06;5050475;28;20025;-76
2020/12/30 04:12:02;;;;;;;15.45;9.80;;;;;;;4.22;89.16;98916.75;5050823;28;20032;-76
2020/12/30 04:14:28;;;;;;;14.80;9.63;;;;;;;4.24;88.81;98925.41;5042607;28;20390;-76
2020/12/30 04:16:54;;;;;;;15.75;9.23;;;;;;;4.27;88.80;98924.84;5048380;28;20118;-76
2020/12/30 04:19:20;;;;;;;14.75;9.13;;;;;;;4.27;88.76;98922.13;5048047;28;20474;-76
2020/12/30 04:21:45;;;;;;;16.48;9.23;;;;;;;4.26;89.11;98925.94;5049942;28;20043;-76
2020/12/30 04:24:10;;;;;;;15.93;8.50;;;;;;;4.26;88.55;98925.13;5048497;28;20033;-76
2020/12/30 04:26:37;;;;;;;14.73;7.93;;;;;;;4.26;89.12;98928.63;5050045;28;20033;-76
2020/12/30 04:29:02;;;;;;;16.55;7.70;;;;;;;4.26;88.95;98931.31;5050453;28;20028;-76
2020/12/30 04:31:28;;;;;;;10.70;6.32;;;;;;;4.26;88.73;98925.94;5055245;28;20029;-76
2020/12/30 04:33:53;;;;;;;9.68;5.30;;;;;;;4.23;88.77;98931.88;5051648;28;20053;-76
2020/12/30 04:36:19;;;;;;;9.45;6.13;;;;;;;4.20;88.61;98927.84;5048120;28;20040;-76
2020/12/30 04:38:44;;;;;;;11.77;6.40;;;;;;;4.20;88.93;98924.31;5050393;28;20036;-76
2020/12/30 04:41:13;;;;;;;14.73;6.72;;;;;;;4.20;88.76;98935.09;5051670;28;20454;-76
2020/12/30 04:43:45;;;;;;;11.73;6.53;;;;;;;4.20;88.74;98935.09;5051533;28;20103;-76
2020/12/30 04:46:12;;;;;;;13.75;7.43;;;;;;;4.20;88.82;98937.81;5052308;28;20478;-76
2020/12/30 04:48:37;;;;;;;11.88;6.63;;;;;;;4.19;89.04;98933.50;5032664;28;20030;-76
2020/12/30 04:51:03;;;;;;;13.60;7.75;;;;;;;4.21;88.72;98936.75;5050531;28;20308;-76
2020/12/30 04:53:28;;;;;;;12.43;7.93;;;;;;;4.20;88.97;98935.94;5053654;28;20047;-76
2020/12/30 04:55:59;;;;;;;16.10;8.35;;;;;;;4.21;88.78;98939.44;5085408;28;20110;-76
2020/12/30 04:58:31;;;;;;;14.90;8.75;;;;;;;4.23;89.09;98942.66;5055340;28;20025;-76
2020/12/30 05:00:57;;;;;;;12.93;8.13;;;;;;;4.24;88.99;98952.38;5052209;28;20029;-76
2020/12/30 05:03:27;;;;;;;18.15;8.70;;;;;;;4.24;88.64;98952.38;5051061;28;20074;-76
2020/12/30 05:05:53;;;;;;;17.60;9.70;;;;;;;4.24;88.94;98949.66;5027345;28;20442;-76
2020/12/30 05:08:19;;;;;;;17.83;9.45;;;;;;;4.20;88.92;98951.28;5032631;28;20410;-76
2020/12/30 05:10:45;;;;;;;20.38;11.05;;;;;;;4.18;88.76;98948.88;5051866;28;20040;-76
2020/12/30 05:13:11;;;;;;;18.88;10.48;;;;;;;4.17;88.87;98962.63;5054021;28;20048;-76
2020/12/30 05:15:36;;;;;;;22.90;12.05;;;;;;;4.15;88.99;98959.44;5052476;28;20043;-76
2020/12/30 05:18:05;;;;;;;22.52;11.52;;;;;;;4.15;88.73;98962.94;5049421;28;20436;-76
2020/12/30 05:20:36;;;;;;;19.38;10.65;;;;;;;4.14;88.91;98958.59;5029343;28;20501;-76
2020/12/30 05:23:05;;;;;;;23.02;11.68;;;;;;;4.13;88.87;98961.59;5045800;28;20475;-76
2020/12/30 05:25:33;;;;;;;22.85;11.50;;;;;;;4.12;88.62;98959.94;5051291;28;20032;-76
2020/12/30 05:27:58;;;;;;;22.15;10.90;;;;;;;4.12;88.78;98960.78;5036816;28;20047;-76
2020/12/30 05:30:24;;;;;;;20.42;11.60;;;;;;;4.11;88.65;98967.25;5049795;28;20478;-76
2020/12/30 05:32:53;;;;;;;26.15;12.00;;;;;;;4.10;88.64;98964.84;5065587;28;20474;-76
2020/12/30 05:35:21;;;;;;;22.33;11.85;;;;;;;4.11;88.84;98969.94;5048255;28;20045;-75
2020/12/30 05:37:48;;;;;;;24.15;11.70;;;;;;;4.14;88.91;98973.97;5043928;28;20059;-76
2020/12/30 05:40:26;;;;;;;21.52;11.52;;;;;;;4.14;88.85;98974.78;5050921;28;20029;-76
2020/12/30 05:42:52;;;;;;;19.58;10.93;;;;;;;4.16;89.10;98971.81;5060005;28;20056;-76
2020/12/30 05:45:21;;;;;;;23.70;11.75;;;;;;;4.17;89.07;98973.41;5052033;28;20532;-76
2020/12/30 05:47:47;;;;;;;21.77;10.55;;;;;;;4.18;88.95;98980.44;5050554;28;20025;-76
2020/12/30 05:50:12;;;;;;;19.95;11.27;;;;;;;4.19;88.76;98982.03;5048883;28;20124;-76
2020/12/30 05:52:38;;;;;;;18.60;11.45;;;;;;;4.19;88.71;98987.44;5053747;28;20078;-76
2020/12/30 05:55:07;;;;;;;21.83;12.00;;;;;;;4.18;88.98;98986.63;5050620;28;20484;-77
2020/12/30 05:57:34;;;;;;;23.52;11.27;;;;;;;4.18;88.86;98986.63;5050095;28;20071;-76
2020/12/30 06:00:07;;;;;;;19.75;11.05;;;;;;;4.18;88.83;98985.84;5050851;28;20032;-76
2020/12/30 06:02:33;;;;;;;21.38;11.50;;;;;;;4.15;88.81;98989.09;5047937;28;20078;-76
2020/12/30 06:05:21;;;;;;;20.38;11.60;;;;;;;4.14;88.90;98990.16;5053214;28;20025;-75
2020/12/30 06:07:48;;;;;;;20.75;11.25;;;;;;;4.15;88.73;98997.97;5048718;28;20029;-76
2020/12/30 06:10:17;;;;;;;20.40;11.48;;;;;;;4.14;88.65;98990.16;5050183;28;20036;-76
2020/12/30 06:12:46;;;;;;;17.02;9.82;;;;;;;4.14;89.03;99000.94;5051719;28;20025;-76
2020/12/30 06:15:13;;;;;;;24.25;11.07;;;;;;;4.15;88.98;99002.56;5047062;28;20386;-76
2020/12/30 06:17:50;;;;;;;20.08;10.55;;;;;;;4.16;88.99;99007.69;5034561;28;20029;-76
2020/12/30 06:20:15;;;;;;;20.77;10.77;;;;;;;4.15;88.89;99007.97;5051098;28;20037;-76
2020/12/30 06:22:40;;;;;;;17.05;9.40;;;;;;;4.16;88.63;99015.75;5035689;28;20033;-76
2020/12/30 06:25:06;;;;;;;17.73;9.93;;;;;;;4.15;88.85;99016.84;5067602;28;20141;-76
2020/12/30 06:27:31;;;;;;;18.77;10.00;;;;;;;4.14;89.15;99019.81;5045644;28;20021;-76
2020/12/30 06:29:56;;;;;;;18.88;9.52;;;;;;;4.15;88.64;99029.53;5048068;28;20024;-77
2020/12/30 06:32:30;;;;;;;16.52;9.05;;;;;;;4.14;88.59;99027.91;5050546;28;20527;-75
2020/12/30 06:34:56;;;;;;;19.17;9.95;;;;;;;4.15;88.77;99033.03;5043251;28;20453;-76
2020/12/30 06:37:31;;;;;;;18.90;9.85;;;;;;;4.14;88.91;99033.31;5048812;28;20024;-76
2020/12/30 06:40:19;;;;;;;19.10;9.45;;;;;;;4.13;88.66;99039.78;5041655;28;20021;-76
2020/12/30 06:42:45;;;;;;;21.55;10.75;;;;;;;4.13;88.79;99047.88;5048212;28;20028;-76
2020/12/30 06:45:14;;;;;;;19.95;9.80;;;;;;;4.15;89.16;99040.34;5051111;28;20350;-76
2020/12/30 06:48:01;;;;;;;16.42;9.52;;;;;;;4.13;88.77;99047.88;5051005;28;20021;-76
2020/12/30 06:50:26;;;;;;;18.80;9.70;;;;;;;4.14;89.02;99049.47;5032401;28;20024;-76
2020/12/30 06:52:52;;;;;;;17.10;9.70;;;;;;;4.14;89.10;99054.88;5047988;28;20020;-76
2020/12/30 06:55:17;;;;;;;19.65;9.75;;;;;;;4.13;88.93;99051.38;5043965;28;20050;-76
2020/12/30 06:57:47;;;;;;;18.08;9.55;;;;;;;4.14;88.95;99060.28;5052674;28;20089;-76
2020/12/30 07:00:31;;;;;;;18.50;9.85;;;;;;;4.14;88.89;99066.47;5049797;28;20390;-76
2020/12/30 07:03:16;;;;;;;17.98;10.38;;;;;;;4.14;89.00;99066.47;5049380;28;20188;-76
2020/12/30 07:05:42;;;;;;;19.85;10.38;;;;;;;4.16;88.72;99075.09;5049952;28;20084;-76
2020/12/30 07:08:07;;;;;;;18.98;9.40;;;;;;;4.17;89.11;99065.13;5050655;28;20017;-76
2020/12/30 07:10:42;;;;;;;16.27;9.23;;;;;;;4.17;88.91;99076.72;5030032;28;20355;-76
2020/12/30 07:13:08;;;;;;;13.50;7.30;;;;;;;4.21;89.05;99079.69;5048217;28;20037;-76
2020/12/30 07:15:33;;;;;;;15.10;9.18;;;;;;;4.23;88.69;99075.63;5050948;28;20024;-76
2020/12/30 07:17:59;;;;;;;13.07;8.35;;;;;;;4.25;89.05;99088.81;5051673;28;20029;-76
2020/12/30 07:20:24;;;;;;;17.48;9.20;;;;;;;4.24;88.79;99087.22;5066195;28;20029;-76
2020/12/30 07:22:50;;;;;;;18.38;9.32;;;;;;;4.24;88.66;99087.22;5047286;28;20021;-76
2020/12/30 07:25:15;;;;;;;17.88;9.25;;;;;;;4.27;88.90;99091.25;5049274;28;20033;-76
2020/12/30 07:27:41;;;;;;;15.60;9.02;;;;;;;4.25;88.68;99093.41;5049447;28;20095;-76
2020/12/30 07:30:06;;;;;;;16.00;9.60;;;;;;;4.25;89.07;99099.63;5048820;28;20103;-76
2020/12/30 07:32:32;;;;;;;13.45;8.07;;;;;;;4.24;88.81;99095.31;5050990;28;20042;-76
2020/12/30 07:34:59;;;;;;;21.15;9.80;;;;;;;4.25;88.97;99094.22;5048905;28;20044;-76
2020/12/30 07:37:24;;;;;;;16.70;9.88;;;;;;;4.26;88.84;99112.03;5048664;28;20048;-76
2020/12/30 07:39:50;;;;;;;16.77;9.50;;;;;;;4.25;88.77;99109.59;5048765;28;20074;-76
2020/12/30 07:42:15;;;;;;;15.40;9.07;;;;;;;4.24;88.82;99114.19;5048026;28;20079;-76
2020/12/30 07:44:44;;;;;;;14.85;9.00;;;;;;;4.22;88.69;99114.44;5049619;28;20112;-77
2020/12/30 07:47:09;;;;;;;19.33;9.25;;;;;;;4.21;88.82;99115.53;5047537;28;20029;-76
2020/12/30 07:49:34;;;;;;;15.38;9.07;;;;;;;4.21;88.62;99115.53;5044722;28;20032;-76
2020/12/30 07:52:01;;;;;;;17.23;9.95;;;;;;;4.22;89.04;99117.16;5047398;28;20393;-76
2020/12/30 07:54:27;;;;;;;24.20;11.05;;;;;;;4.21;88.60;99118.25;5046629;28;20029;-76
2020/12/30 07:56:59;;;;;;;14.10;8.85;;;;;;;4.19;88.99;99114.19;5048399;28;20037;-75
2020/12/30 07:59:24;;;;;;;13.60;7.80;;;;;;;4.18;88.50;99116.09;5048259;28;20036;-76
2020/12/30 08:02:04;;;;;;;12.27;8.13;;;;;;;4.17;88.64;99116.34;5048707;28;20462;-76
2020/12/30 08:04:35;;;;;;;14.73;7.47;;;;;;;4.17;88.91;99122.56;5048060;28;21347;-76
2020/12/30 08:07:05;;;;;;;14.70;8.20;;;;;;;4.16;88.67;99122.84;5077589;28;20021;-76
2020/12/30 08:09:31;;;;;;;14.98;8.50;;;;;;;4.16;88.72;99120.94;5047975;28;20277;-76
2020/12/30 08:12:04;;;;;;;14.77;7.70;;;;;;;4.16;88.64;99122.84;5046395;28;20095;-75
2020/12/30 08:14:29;;;;;;;16.92;8.07;;;;;;;4.16;88.81;99128.22;5046760;28;20100;-76
2020/12/30 08:16:55;;;;;;;16.15;8.60;;;;;;;4.16;88.84;99139.00;5055481;28;20037;-76
2020/12/30 08:19:27;;;;;;;14.80;8.02;;;;;;;4.17;88.63;99141.47;5054547;28;20432;-76
2020/12/30 08:22:03;;;;;;;;;;;;;;;4.19;88.72;99143.88;5052017;28;20029;-75
2020/12/30 08:24:29;;;;;;;12.88;7.85;;;;;;;4.20;88.79;99146.31;5051851;28;19919;-75
2020/12/30 08:26:55;;;;;;;12.75;7.40;;;;;;;4.15;88.82;99143.59;5052582;28;20021;-76
2020/12/30 08:29:20;;;;;;;13.40;8.07;;;;;;;4.12;88.38;99141.47;5053537;28;20497;-75
2020/12/30 08:31:49;;;;;;;14.57;8.90;;;;;;;4.08;88.71;99147.66;5050238;28;20033;-75
2020/12/30 08:34:14;;;;;;;14.65;7.65;;;;;;;4.02;88.41;99146.06;5035062;28;20041;-76
2020/12/30 08:36:40;;;;;;;19.48;10.35;;;;;;;3.96;88.88;99145.25;5063288;28;20081;-76
2020/12/30 08:39:07;;;;;;;19.02;10.35;;;;;;;3.93;88.44;99148.50;5046577;28;20366;-76
2020/12/30 08:41:32;;;;;;;22.15;10.77;;;;;;;3.90;88.95;99149.00;5051522;28;20440;-76
2020/12/30 08:43:58;;;;;;;19.63;10.65;;;;;;;3.88;88.71;99151.97;5036179;28;20025;-75
2020/12/30 08:46:24;;;;;;;20.85;11.05;;;;;;;3.90;88.49;99163.31;5048600;28;20036;-76
2020/12/30 08:48:51;;;;;;;21.85;11.20;;;;;;;3.92;88.80;99163.84;5085737;28;20029;-76
2020/12/30 08:51:29;;;;;;;21.42;10.50;;;;;;;3.91;88.83;99159.53;5050325;28;20024;-76
2020/12/30 08:53:54;;;;;;;22.00;10.75;;;;;;;3.93;89.00;99165.47;5049592;28;20401;-76
2020/12/30 08:56:20;;;;;;;25.35;11.73;;;;;;;3.96;88.89;99172.22;5048979;28;20047;-76
2020/12/30 08:58:56;;;;;;;20.80;11.98;;;;;;;4.00;88.63;99167.88;5051861;28;20108;-75
2020/12/30 09:01:25;;;;;;;21.02;11.15;;;;;;;4.07;88.79;99173.00;5034627;28;20372;-76
2020/12/30 09:03:52;;;;;;;22.77;11.00;;;;;;;4.12;88.74;99170.28;5053685;28;20028;-76
2020/12/30 09:06:29;;;;;;;22.27;11.90;;;;;;;4.13;88.38;99175.44;5050174;28;20028;-76
2020/12/30 09:08:55;;;;;;;23.95;10.98;;;;;;;4.12;88.68;99181.06;5044603;28;20029;-76
2020/12/30 09:11:21;;;;;;;24.73;13.00;;;;;;;4.08;88.37;99182.72;5048383;28;20025;-76
2020/12/30 09:13:46;;;;;;;24.90;11.93;;;;;;;4.03;88.44;99185.41;5063472;28;20121;-75
2020/12/30 09:16:12;;;;;;;22.42;10.68;;;;;;;3.99;88.75;99185.94;5029507;28;20029;-75
2020/12/30 09:18:37;;;;;;;24.10;12.65;;;;;;;3.99;88.48;99193.22;5051503;28;20028;-76
2020/12/30 09:21:03;;;;;;;23.63;12.52;;;;;;;4.02;88.69;99194.59;5048420;28;20016;-78
2020/12/30 09:23:29;;;;;;;22.55;12.65;;;;;;;4.04;88.74;99197.78;5047448;28;20455;-77
2020/12/30 09:25:56;;;;;;;27.55;12.98;;;;;;;4.08;88.49;99197.00;5036588;28;20044;-77
2020/12/30 09:28:22;;;;;;;24.73;13.18;;;;;;;4.14;88.73;99206.69;5043773;28;20131;-78
2020/12/30 09:30:49;;;;;;;27.13;12.80;;;;;;;4.15;89.11;99207.53;5044989;28;20039;-78
2020/12/30 09:33:16;;;;;;;26.15;13.35;;;;;;;4.18;88.77;99215.06;5042622;28;20033;-77
2020/12/30 09:35:41;;;;;;;29.00;13.90;;;;;;;4.21;88.79;99206.44;5043859;28;20049;-77
2020/12/30 09:38:07;;;;;;;20.60;12.27;;;;;;;4.25;88.92;99204.81;5048233;28;20116;-78
2020/12/30 09:40:39;;;;;;;25.15;13.18;;;;;;;4.30;88.70;99204.81;5083579;28;20486;-77
2020/12/30 09:43:18;;;;;;;25.25;11.88;;;;;;;4.34;88.63;99215.88;5032145;28;20016;-77
2020/12/30 09:45:44;;;;;;;25.60;12.90;;;;;;;4.37;88.56;99209.94;5050849;28;20055;-78
2020/12/30 09:48:10;;;;;;;22.50;11.63;;;;;;;4.38;88.76;99212.34;5064290;28;20025;-78
2020/12/30 09:50:36;;;;;;;27.23;12.68;;;;;;;4.40;88.86;99215.59;5047100;28;20044;-79
2020/12/30 09:53:01;;;;;;;25.40;11.85;;;;;;;4.42;88.68;99213.44;5052158;28;20051;-81
2020/12/30 09:55:27;;;;;;;23.67;11.52;;;;;;;4.47;88.67;99219.91;5051654;28;20527;-79
2020/12/30 09:57:52;;;;;;;23.80;11.88;;;;;;;4.52;88.69;99217.19;5052666;28;20009;-80
2020/12/30 10:00:17;;;;;;;20.42;10.60;;;;;;;4.57;88.51;99219.88;5046951;28;20462;-80
2020/12/30 10:02:43;;;;;;;20.75;11.35;;;;;;;4.61;88.71;99226.34;5047653;28;20032;-80
2020/12/30 10:05:08;;;;;;;21.42;10.60;;;;;;;4.64;88.72;99228.53;5048883;28;20385;-80
2020/12/30 10:07:34;;;;;;;20.25;9.25;;;;;;;4.68;88.86;99222.28;5054713;28;20040;-81
2020/12/30 10:09:59;;;;;;;17.73;9.45;;;;;;;4.68;88.58;99226.88;5052553;28;20032;-80
2020/12/30 10:12:25;;;;;;;16.90;8.52;;;;;;;4.71;88.59;99226.34;5051347;28;20075;-81
2020/12/30 10:14:50;;;;;;;16.60;8.68;;;;;;;4.73;88.58;99223.38;5053343;28;20029;-80
2020/12/30 10:17:16;;;;;;;21.02;10.55;;;;;;;4.73;88.49;99229.56;5047654;28;20107;-81
2020/12/30 10:19:41;;;;;;;19.38;10.20;;;;;;;4.74;88.54;99219.56;5044134;28;20033;-80
2020/12/30 10:22:09;;;;;;;18.88;9.80;;;;;;;4.75;88.82;99232.81;5048918;28;20040;-77
2020/12/30 10:24:35;;;;;;;15.60;8.80;;;;;;;4.78;88.66;99221.47;5046828;28;20032;-76
2020/12/30 10:27:01;;;;;;;17.27;9.45;;;;;;;4.79;88.58;99228.47;5045508;28;20032;-76
2020/12/30 10:29:28;;;;;;;17.20;8.38;;;;;;;4.77;88.36;99230.63;5049173;28;20032;-75
2020/12/30 10:31:55;;;;;;;15.80;8.98;;;;;;;4.81;88.64;99233.63;5030746;28;20041;-76
2020/12/30 10:34:21;;;;;;;21.23;10.05;;;;;;;4.85;88.83;99238.16;5046620;28;20120;-76
2020/12/30 10:36:46;;;;;;;14.70;7.82;;;;;;;4.85;88.52;99237.38;5048586;28;20035;-77
2020/12/30 10:39:12;;;;;;;15.60;9.10;;;;;;;4.81;88.20;99237.13;5045792;28;20391;-76
2020/12/30 10:41:37;;;;;;;16.52;7.97;;;;;;;4.77;88.51;99238.72;5047848;28;20032;-77
2020/12/30 10:44:02;;;;;;;17.88;8.10;;;;;;;4.75;88.48;99234.72;5043941;28;20055;-77
2020/12/30 10:46:28;;;;;;;14.57;5.97;;;;;;;4.76;88.61;99229.03;5052197;28;20021;-77
2020/12/30 10:48:53;;;;;;;10.70;5.55;;;;;;;4.77;88.59;99227.94;5049720;28;20035;-76
2020/12/30 10:51:19;;;;;;;10.55;5.43;;;;;;;4.77;88.42;99237.94;5045729;28;20033;-76
2020/12/30 10:53:44;;;;;;;12.02;6.55;;;;;;;4.81;88.67;99230.91;5083419;28;20394;-78
2020/12/30 10:56:11;;;;;;;14.07;6.72;;;;;;;4.80;88.71;99235.50;5046905;28;20107;-79
2020/12/30 10:58:37;;;;;;;13.27;6.75;;;;;;;4.83;88.51;99234.97;5048306;28;20112;-80
2020/12/30 11:01:08;;;;;;;11.48;6.28;;;;;;;4.84;88.62;99236.56;5059823;28;20029;-79
2020/12/30 11:03:34;;;;;;;12.80;7.20;;;;;;;4.85;88.59;99232.78;5049338;28;20108;-80
2020/12/30 11:05:59;;;;;;;12.05;6.72;;;;;;;4.87;88.58;99229.81;5049441;28;20029;-78
2020/12/30 11:08:26;;;;;;;12.15;6.90;;;;;;;4.88;88.57;99231.41;5044040;28;20025;-78
2020/12/30 11:10:51;;;;;;;15.82;7.03;;;;;;;4.87;88.58;99227.91;5051829;28;20036;-79
2020/12/30 11:13:17;;;;;;;17.23;8.40;;;;;;;4.87;88.77;99236.00;5031141;28;20082;-79
2020/12/30 11:15:42;;;;;;;15.35;7.50;;;;;;;4.87;88.77;99235.22;5048782;28;20033;-78
2020/12/30 11:18:07;;;;;;;15.00;7.43;;;;;;;4.87;88.80;99235.22;5050855;28;20033;-78
2020/12/30 11:20:33;;;;;;;16.30;8.02;;;;;;;4.85;88.68;99242.75;5048534;28;20025;-78
2020/12/30 11:22:58;;;;;;;15.02;8.30;;;;;;;4.85;88.61;99235.47;5049627;28;20398;-78
2020/12/30 11:25:24;;;;;;;17.67;8.18;;;;;;;4.85;88.56;99238.16;5047135;28;20035;-78
2020/12/30 11:27:51;;;;;;;17.30;9.02;;;;;;;4.85;88.79;99234.66;5048228;28;20076;-81